Aviation Digital Data Service (ADDS)

Output produced by METARs form (0849 UTC 25 September 2016)
found at http://aviationweather.gov/adds/metars/
 
KHYA 250520Z 2506/2606 31008KT P6SM SKC 
     FM251300 34012KT P6SM SKC 
     FM252300 34008KT P6SM SKC 
     FM260400 36004KT P6SM FEW250